Time;durP1;ratioP1;P1;durP2;ratioP2;P2;SDS_P1;SDS_P2;PMS_P1;PMS_P2;Temp;Humidity;BMP_temperature;BMP_pressure;BME280_temperature;BME280_humidity;BME280_pressure;Samples;Min_cycle;Max_cycle;Signal;HPM_P1;HPM_P2
2023/12/20 00:01:20;;;;;;;9.70;9.40;;;;;;;-141.02;100.00;51062.50;5112315;28;20201;-68
2023/12/20 00:03:46;;;;;;;8.93;8.73;;;;;;;-141.02;100.00;50750.75;5112550;28;20196;-68
2023/12/20 00:06:13;;;;;;;9.23;9.03;;;;;;;-141.02;100.00;50081.19;5112527;28;20211;-68
2023/12/20 00:08:40;;;;;;;8.90;8.70;;;;;;;-141.02;100.00;50275.50;5112518;28;20311;-68
2023/12/20 00:11:07;;;;;;;9.90;9.60;;;;;;;-141.02;100.00;50531.38;5112072;28;20679;-68
2023/12/20 00:13:34;;;;;;;9.50;9.20;;;;;;;-141.02;100.00;51455.09;5112216;28;20189;-68
2023/12/20 00:16:03;;;;;;;9.57;9.27;;;;;;;-141.02;100.00;52252.00;5112464;28;20276;-67
2023/12/20 00:18:30;;;;;;;9.27;9.00;;;;;;;-141.02;100.00;53108.78;5112410;28;20197;-67
2023/12/20 00:20:57;;;;;;;8.73;8.53;;;;;;;-141.02;100.00;53919.56;5112062;28;20673;-68
2023/12/20 00:23:24;;;;;;;9.10;8.90;;;;;;;-141.02;100.00;54547.53;5112370;28;20233;-68
2023/12/20 00:25:51;;;;;;;9.10;8.90;;;;;;;-141.02;100.00;54526.31;5112403;28;20250;-67
2023/12/20 00:28:18;;;;;;;9.67;9.37;;;;;;;-141.02;100.00;54707.41;5112322;28;20292;-67
2023/12/20 00:30:45;;;;;;;9.30;9.03;;;;;;;-141.02;100.00;54574.50;5112053;28;20280;-67
2023/12/20 00:33:13;;;;;;;10.60;10.30;;;;;;;-141.02;100.00;55040.72;5111877;28;20311;-67
2023/12/20 00:35:40;;;;;;;9.77;9.47;;;;;;;-141.02;100.00;54794.09;5111990;28;20280;-67
2023/12/20 00:38:08;;;;;;;9.10;8.90;;;;;;;-141.02;100.00;54792.19;5111953;28;20280;-67
2023/12/20 00:40:35;;;;;;;9.77;9.47;;;;;;;-141.02;100.00;54855.75;5113056;28;20193;-67
2023/12/20 00:43:02;;;;;;;9.10;8.90;;;;;;;-141.02;100.00;55354.78;5111965;28;20272;-66
2023/12/20 00:45:29;;;;;;;9.70;9.40;;;;;;;-141.02;100.00;56185.38;5111855;28;20284;-66
2023/12/20 00:47:56;;;;;;;9.83;9.53;;;;;;;-141.02;100.00;56686.53;5112194;28;20203;-67
2023/12/20 00:50:24;;;;;;;9.03;8.83;;;;;;;-141.02;100.00;55618.78;5112170;28;20201;-66
2023/12/20 00:52:51;;;;;;;8.57;8.37;;;;;;;-141.02;100.00;55173.66;5111787;28;20224;-66
2023/12/20 00:55:18;;;;;;;8.73;8.53;;;;;;;-141.02;100.00;54680.44;5114459;28;20195;-66
2023/12/20 00:57:45;;;;;;;8.33;8.13;;;;;;;-141.02;100.00;54817.22;5115272;28;20231;-66
2023/12/20 01:00:13;;;;;;;8.63;8.43;;;;;;;-141.02;100.00;55067.69;5115422;28;20196;-66
2023/12/20 01:02:40;;;;;;;9.40;9.10;;;;;;;-141.02;100.00;55587.94;5115698;28;20288;-66
2023/12/20 01:05:09;;;;;;;8.50;8.30;;;;;;;-141.02;100.00;56008.06;5115339;28;20284;-66
2023/12/20 01:07:37;;;;;;;8.53;8.33;;;;;;;-141.02;100.00;56640.25;5115324;28;20197;-66
2023/12/20 01:10:04;;;;;;;7.90;7.70;;;;;;;-141.02;100.00;56940.97;5115564;28;20663;-66
2023/12/20 01:12:31;;;;;;;7.80;7.60;;;;;;;-141.02;100.00;57180.03;5115178;28;20231;-66
2023/12/20 01:14:58;;;;;;;8.03;7.83;;;;;;;-141.02;100.00;57006.53;5115417;28;20193;-66
2023/12/20 01:17:25;;;;;;;8.73;8.53;;;;;;;-141.02;100.00;57253.28;5115071;28;20197;-66
2023/12/20 01:19:52;;;;;;;9.00;8.80;;;;;;;-141.02;100.00;57746.88;5115023;28;20193;-66
2023/12/20 01:22:19;;;;;;;8.63;8.43;;;;;;;-141.02;100.00;57746.88;5115683;28;20208;-66
2023/12/20 01:24:47;;;;;;;8.23;8.03;;;;;;;-141.02;100.00;57993.72;5114990;28;20284;-66
2023/12/20 01:27:14;;;;;;;8.67;8.47;;;;;;;-141.02;100.00;57993.72;5115198;28;20223;-66
2023/12/20 01:29:41;;;;;;;8.40;8.20;;;;;;;-141.02;100.00;57500.06;5114854;28;20189;-66
2023/12/20 01:32:08;;;;;;;8.43;8.23;;;;;;;-141.02;100.00;57253.28;5115017;28;20324;-67
2023/12/20 01:34:35;;;;;;;8.70;8.50;;;;;;;-141.02;100.00;57253.28;5114841;28;20283;-66
2023/12/20 01:37:03;;;;;;;8.57;8.37;;;;;;;-141.02;100.00;57172.31;5115073;28;20197;-66
2023/12/20 01:39:30;;;;;;;9.27;8.97;;;;;;;-141.02;100.00;56343.41;5114622;28;20677;-66
2023/12/20 01:41:58;;;;;;;10.70;10.40;;;;;;;-141.02;100.00;55227.63;5114662;28;20201;-66
2023/12/20 01:44:25;;;;;;;9.17;8.93;;;;;;;-141.02;100.00;55322.03;5114534;28;20189;-66
2023/12/20 01:46:52;;;;;;;9.67;9.37;;;;;;;-141.02;100.00;55106.22;5114847;28;20292;-66
2023/12/20 01:49:19;;;;;;;9.87;9.57;;;;;;;-141.02;100.00;54616.88;5114833;28;20201;-66
2023/12/20 01:51:47;;;;;;;9.30;9.00;;;;;;;-141.02;100.00;54555.22;5114378;28;20280;-66
2023/12/20 01:54:14;;;;;;;9.77;9.47;;;;;;;-141.02;100.00;54212.34;5114434;28;20555;-66
2023/12/20 01:56:41;;;;;;;9.40;9.10;;;;;;;-141.02;100.00;53334.09;5114088;28;20584;-67
2023/12/20 01:59:12;;;;;;;9.80;9.50;;;;;;;-141.02;100.00;53407.28;5114620;28;20276;-66
2023/12/20 02:01:39;;;;;;;9.97;9.67;;;;;;;-141.02;100.00;53314.84;5114266;28;20200;-66
2023/12/20 02:04:06;;;;;;;9.37;9.07;;;;;;;-141.02;100.00;54701.63;5114271;28;20205;-66
2023/12/20 02:06:35;;;;;;;9.30;9.00;;;;;;;-141.02;100.00;56879.28;5114164;28;20280;-66
2023/12/20 02:09:02;;;;;;;9.40;9.10;;;;;;;-141.02;100.00;56948.69;5114408;28;20193;-66
2023/12/20 02:11:29;;;;;;;9.80;9.50;;;;;;;-141.02;100.00;57162.69;5114336;28;20276;-66
2023/12/20 02:13:56;;;;;;;8.40;8.20;;;;;;;-141.02;100.00;56956.41;5114216;28;20225;-66
2023/12/20 02:16:24;;;;;;;8.97;8.77;;;;;;;-141.02;100.00;56405.09;5114034;28;20193;-66
2023/12/20 02:18:51;;;;;;;9.23;8.93;;;;;;;-141.02;100.00;56703.88;5114254;28;20197;-66
2023/12/20 02:21:18;;;;;;;8.63;8.43;;;;;;;-141.02;100.00;57006.53;5114143;28;20197;-66
2023/12/20 02:23:47;;;;;;;7.63;7.43;;;;;;;-141.02;100.00;57253.28;5113814;28;20656;-67
2023/12/20 02:26:13;;;;;;;8.30;8.10;;;;;;;-141.02;100.00;57461.53;5113989;28;20189;-66
2023/12/20 02:28:40;;;;;;;8.47;8.27;;;;;;;-141.02;100.00;58240.56;5113810;28;20758;-66
2023/12/20 02:31:07;;;;;;;7.97;7.77;;;;;;;-141.02;100.00;57993.72;5114034;28;20201;-66
2023/12/20 02:33:34;;;;;;;7.70;7.50;;;;;;;-141.02;100.00;57500.06;5113469;28;20235;-66
2023/12/20 02:36:01;;;;;;;8.00;7.80;;;;;;;-141.02;100.00;57006.53;5113803;28;20199;-66
2023/12/20 02:38:28;;;;;;;7.93;7.73;;;;;;;-141.02;100.00;57006.53;5113813;28;20190;-66
2023/12/20 02:40:56;;;;;;;7.47;7.27;;;;;;;-141.02;100.00;56759.78;5113483;28;20207;-66
2023/12/20 02:43:23;;;;;;;8.60;8.40;;;;;;;-141.02;100.00;56875.44;5113653;28;20280;-66
2023/12/20 02:45:50;;;;;;;7.80;7.60;;;;;;;-141.02;100.00;57500.06;5113671;28;20204;-66
2023/12/20 02:48:17;;;;;;;6.80;6.60;;;;;;;-141.02;100.00;56987.25;5113625;28;20279;-66
2023/12/20 02:50:44;;;;;;;7.43;7.23;;;;;;;-141.02;100.00;57253.28;5113211;28;20575;-67
2023/12/20 02:53:11;;;;;;;7.87;7.67;;;;;;;-141.02;100.00;56987.25;5113141;28;20781;-66
2023/12/20 02:55:37;;;;;;;7.50;7.30;;;;;;;-141.02;100.00;56759.78;5112963;28;20199;-67
2023/12/20 02:58:06;;;;;;;7.60;7.40;;;;;;;-141.02;100.00;56887.00;5113124;28;20204;-66
2023/12/20 03:00:33;;;;;;;7.50;7.30;;;;;;;-141.02;100.00;56713.50;5113432;28;20215;-66
2023/12/20 03:03:00;;;;;;;7.90;7.70;;;;;;;-141.02;100.00;56054.31;5113444;27;20193;-66
2023/12/20 03:05:27;;;;;;;7.90;7.70;;;;;;;-141.02;100.00;55811.50;5113401;28;20193;-66
2023/12/20 03:07:54;;;;;;;7.40;7.20;;;;;;;-141.02;100.00;55977.22;5113311;28;20193;-66
2023/12/20 03:10:21;;;;;;;7.60;7.40;;;;;;;-141.02;100.00;55796.06;5113296;28;20189;-65
2023/12/20 03:12:48;;;;;;;7.00;6.80;;;;;;;-141.02;100.00;55333.59;5112775;28;20221;-65
2023/12/20 03:15:16;;;;;;;7.17;6.97;;;;;;;-141.02;100.00;55117.78;5113234;28;20203;-65
2023/12/20 03:17:43;;;;;;;8.10;7.90;;;;;;;-141.02;100.00;55638.06;5112385;28;20277;-66
2023/12/20 03:20:10;;;;;;;7.27;7.07;;;;;;;-141.02;100.00;56462.91;5113152;28;20194;-65
2023/12/20 03:22:37;;;;;;;6.80;6.60;;;;;;;-141.02;100.00;56607.50;5112791;28;20243;-65
2023/12/20 03:25:04;;;;;;;5.30;5.20;;;;;;;-141.02;100.00;56759.78;5113017;28;20579;-65
2023/12/20 03:27:31;;;;;;;6.70;6.50;;;;;;;-141.02;100.00;56740.50;5113022;28;20200;-65
2023/12/20 03:29:58;;;;;;;4.33;4.23;;;;;;;-141.02;100.00;56721.22;5112896;28;20197;-65
2023/12/20 03:32:26;;;;;;;5.30;5.20;;;;;;;-141.02;100.00;56759.78;5112465;28;20267;-65
2023/12/20 03:34:53;;;;;;;6.97;6.77;;;;;;;-141.02;100.00;56570.88;5112979;28;20193;-65
2023/12/20 03:37:20;;;;;;;4.50;4.40;;;;;;;-141.02;100.00;56622.91;5112495;28;20663;-65
2023/12/20 03:39:47;;;;;;;7.30;7.10;;;;;;;-141.02;100.00;56933.25;5112598;28;20284;-65
2023/12/20 03:42:14;;;;;;;7.63;7.43;;;;;;;-141.02;100.00;57133.75;5112469;28;20280;-65
2023/12/20 03:44:41;;;;;;;7.63;7.43;;;;;;;-141.02;100.00;57253.28;5113533;28;20199;-65
2023/12/20 03:47:08;;;;;;;6.13;6.03;;;;;;;-141.02;100.00;57253.28;5112510;28;20633;-65
2023/12/20 03:49:38;;;;;;;7.00;6.80;;;;;;;-141.02;100.00;57245.56;5112772;28;20546;-65
2023/12/20 03:52:05;;;;;;;5.27;5.17;;;;;;;-141.02;100.00;57253.28;5112437;28;20665;-64
2023/12/20 03:54:32;;;;;;;4.17;4.07;;;;;;;-141.02;100.00;57224.38;5112369;28;20193;-64
2023/12/20 03:56:59;;;;;;;4.60;4.50;;;;;;;-141.02;100.00;57006.53;5112184;28;20225;-65
2023/12/20 03:59:26;;;;;;;4.43;4.33;;;;;;;-141.02;100.00;57145.31;5112622;28;20215;-65
2023/12/20 04:01:53;;;;;;;4.70;4.60;;;;;;;-141.02;100.00;57006.53;5112335;28;20197;-65
2023/12/20 04:04:20;;;;;;;5.30;5.20;;;;;;;-141.02;100.00;56513.03;5112556;28;20201;-65
2023/12/20 04:06:48;;;;;;;5.47;5.37;;;;;;;-141.02;100.00;56890.84;5112222;28;20228;-65
2023/12/20 04:09:15;;;;;;;5.17;5.07;;;;;;;-141.02;100.00;57172.31;5112584;28;20203;-64
2023/12/20 04:11:42;;;;;;;4.77;4.67;;;;;;;-141.02;100.00;57253.28;5112122;28;20574;-65
2023/12/20 04:14:10;;;;;;;3.77;3.67;;;;;;;-141.02;100.00;56266.31;5112187;28;20221;-64
2023/12/20 04:16:37;;;;;;;4.87;4.77;;;;;;;-141.02;100.00;56347.28;5112177;28;20280;-64
2023/12/20 04:19:04;;;;;;;4.40;4.30;;;;;;;-141.02;100.00;57253.28;5112047;28;20666;-64
2023/12/20 04:21:31;;;;;;;4.60;4.50;;;;;;;-141.02;100.00;57006.53;5112131;28;20193;-64
2023/12/20 04:23:59;;;;;;;4.33;4.23;;;;;;;-141.02;100.00;57207.03;5112295;28;20621;-65
2023/12/20 04:26:26;;;;;;;5.10;5.00;;;;;;;-141.02;100.00;56967.97;5112117;28;20201;-64
2023/12/20 04:28:53;;;;;;;4.97;4.87;;;;;;;-141.02;100.00;56850.38;5112522;28;20284;-65
2023/12/20 04:31:20;;;;;;;5.77;5.67;;;;;;;-141.02;100.00;57006.53;5116279;28;20193;-64
2023/12/20 04:33:46;;;;;;;4.30;4.20;;;;;;;-141.02;100.00;56940.97;5115857;28;20225;-65
2023/12/20 04:36:14;;;;;;;5.00;4.90;;;;;;;-141.02;100.00;56601.72;5116183;28;20193;-65
2023/12/20 04:38:41;;;;;;;5.03;4.93;;;;;;;-141.02;100.00;56680.75;5116202;28;20197;-65
2023/12/20 04:41:09;;;;;;;5.50;5.40;;;;;;;-141.02;100.00;55379.84;5115860;28;20203;-64
2023/12/20 04:43:36;;;;;;;5.50;5.40;;;;;;;-141.02;100.00;55181.38;5116126;28;20193;-65
2023/12/20 04:46:03;;;;;;;6.33;6.23;;;;;;;-141.02;100.00;54717.03;5116043;28;20243;-65
2023/12/20 04:48:30;;;;;;;5.60;5.50;;;;;;;-141.02;100.00;54582.19;5116245;27;20189;-65
2023/12/20 04:50:57;;;;;;;5.70;5.60;;;;;;;-141.02;100.00;55217.97;5115697;28;20280;-65
2023/12/20 04:53:24;;;;;;;5.70;5.60;;;;;;;-141.02;100.00;55796.06;5116689;28;20228;-65
2023/12/20 04:55:50;;;;;;;5.43;5.33;;;;;;;-141.02;100.00;55229.53;5115633;28;20200;-65
2023/12/20 04:58:19;;;;;;;6.80;6.60;;;;;;;-141.02;100.00;54613.03;5115562;28;20190;-66
2023/12/20 05:00:46;;;;;;;4.93;4.83;;;;;;;-141.02;100.00;54431.94;5115682;28;20204;-65
2023/12/20 05:03:13;;;;;;;6.00;5.90;;;;;;;-141.02;100.00;55083.09;5115752;28;20271;-65
2023/12/20 05:05:40;;;;;;;5.20;5.10;;;;;;;-141.02;100.00;55298.91;5115639;28;20250;-65
2023/12/20 05:08:07;;;;;;;4.20;4.10;;;;;;;-141.02;100.00;55244.97;5115690;28;20224;-64
2023/12/20 05:10:34;;;;;;;4.30;4.20;;;;;;;-141.02;100.00;54437.72;5115493;28;20189;-65
2023/12/20 05:13:01;;;;;;;4.30;4.20;;;;;;;-141.02;100.00;54231.59;5115118;27;20313;-65
2023/12/20 05:15:29;;;;;;;5.20;5.10;;;;;;;-141.02;100.00;54293.25;5115514;28;20224;-65
2023/12/20 05:17:56;;;;;;;5.20;5.10;;;;;;;-141.02;100.00;54561.00;5115109;28;20201;-64
2023/12/20 05:20:24;;;;;;;4.37;4.27;;;;;;;-141.02;100.00;55231.47;5115168;28;20575;-65
2023/12/20 05:22:50;;;;;;;4.13;4.03;;;;;;;-141.02;100.00;55402.97;5115352;28;20197;-65
2023/12/20 05:25:17;;;;;;;3.97;3.87;;;;;;;-141.02;100.00;55514.72;5114979;28;20205;-65
2023/12/20 05:27:44;;;;;;;3.67;3.57;;;;;;;-141.02;100.00;54928.97;5115305;28;20213;-65
2023/12/20 05:30:12;;;;;;;5.60;5.50;;;;;;;-141.02;100.00;54566.78;5115190;28;20296;-65
2023/12/20 05:32:41;;;;;;;4.87;4.77;;;;;;;-141.02;100.00;55009.88;5115186;28;20277;-64
2023/12/20 05:35:08;;;;;;;4.67;4.57;;;;;;;-141.02;100.00;56285.59;5115106;28;20197;-65
2023/12/20 05:37:34;;;;;;;4.00;3.90;;;;;;;-141.02;100.00;56262.47;5115096;28;20606;-64
2023/12/20 05:40:02;;;;;;;4.43;4.33;;;;;;;-141.02;100.00;56701.94;5114633;28;20277;-65
2023/12/20 05:42:29;;;;;;;4.20;4.10;;;;;;;-141.02;100.00;57480.81;5114580;28;20735;-65
2023/12/20 05:44:56;;;;;;;5.17;5.07;;;;;;;-141.02;100.00;58487.41;5114908;28;20208;-65
2023/12/20 05:47:23;;;;;;;4.67;4.57;;;;;;;-141.02;100.00;59228.09;5114576;28;20199;-66
2023/12/20 05:49:51;;;;;;;3.70;3.60;;;;;;;-141.02;100.00;60709.94;5114872;28;20199;-65
2023/12/20 05:52:18;;;;;;;4.43;4.33;;;;;;;-141.02;100.00;61698.22;5114417;28;20203;-64
2023/12/20 05:54:45;;;;;;;3.90;3.80;;;;;;;-141.02;100.00;61945.31;5114628;28;20247;-64
2023/12/20 05:57:12;;;;;;;5.17;5.07;;;;;;;-141.02;100.00;62192.44;5114113;28;20316;-64
2023/12/20 05:59:39;;;;;;;4.07;3.97;;;;;;;-141.02;100.00;63181.16;5114838;28;20193;-65
2023/12/20 06:02:06;;;;;;;3.80;3.70;;;;;;;-141.02;100.00;64170.13;5114319;28;20659;-65
2023/12/20 06:04:33;;;;;;;6.00;5.90;;;;;;;-141.02;100.00;64417.41;5114496;27;20189;-65
2023/12/20 06:07:02;;;;;;;6.27;6.17;;;;;;;-141.02;100.00;64417.41;5114489;28;20193;-65
2023/12/20 06:09:29;;;;;;;5.63;5.53;;;;;;;-141.02;100.00;64912.06;5114392;28;20200;-65
2023/12/20 06:11:55;;;;;;;5.53;5.43;;;;;;;-141.02;100.00;64417.41;5114048;28;20207;-65
2023/12/20 06:14:22;;;;;;;5.63;5.53;;;;;;;-141.02;100.00;64417.41;5113988;28;20320;-66
2023/12/20 06:16:49;;;;;;;5.83;5.73;;;;;;;-141.02;100.00;64170.13;5114125;28;20201;-66
2023/12/20 06:19:16;;;;;;;5.83;5.73;;;;;;;-141.02;100.00;64912.06;5113951;28;20258;-66
2023/12/20 06:21:43;;;;;;;3.97;3.87;;;;;;;-141.02;100.00;65901.53;5113842;28;20683;-65
2023/12/20 06:24:11;;;;;;;4.40;4.30;;;;;;;-141.02;100.00;65406.75;5114106;28;20265;-65
2023/12/20 06:26:38;;;;;;;4.07;3.97;;;;;;;-141.02;100.00;65406.75;5114955;28;20193;-66
2023/12/20 06:29:05;;;;;;;3.90;3.80;;;;;;;-141.02;100.00;66148.94;5113967;28;20193;-65
2023/12/20 06:31:32;;;;;;;4.30;4.20;;;;;;;-141.02;100.00;66148.94;5113670;28;20189;-65
2023/12/20 06:33:59;;;;;;;4.17;4.07;;;;;;;-141.02;100.00;66148.94;5113795;28;20233;-65
2023/12/20 06:36:27;;;;;;;3.80;3.70;;;;;;;-141.02;100.00;66148.94;5113918;28;20275;-65
2023/12/20 06:38:54;;;;;;;4.23;4.13;;;;;;;-141.02;100.00;66891.31;5113542;28;20284;-66
2023/12/20 06:41:24;;;;;;;4.60;4.50;;;;;;;-141.02;100.00;68128.91;5113439;28;20295;-66
2023/12/20 06:43:51;;;;;;;4.30;4.20;;;;;;;-141.02;100.00;68871.72;5113430;28;20190;-65
2023/12/20 06:46:18;;;;;;;3.80;3.70;;;;;;;-141.02;100.00;68624.09;5113638;28;20244;-65
2023/12/20 06:48:45;;;;;;;4.00;3.90;;;;;;;-141.02;100.00;68128.91;5113715;28;20196;-66
2023/12/20 06:51:13;;;;;;;4.90;4.80;;;;;;;-141.02;100.00;68624.09;5113009;28;20197;-66
2023/12/20 06:53:40;;;;;;;4.40;4.30;;;;;;;-141.02;100.00;69119.34;5112843;28;20311;-65
2023/12/20 06:56:08;;;;;;;4.60;4.50;;;;;;;-141.02;100.00;69119.34;5113360;28;20254;-66
2023/12/20 06:58:37;;;;;;;5.90;5.80;;;;;;;-141.02;100.00;69366.97;5113225;28;20228;-65
2023/12/20 07:01:05;;;;;;;5.33;5.23;;;;;;;-141.02;100.00;70605.50;5113507;28;20189;-65
2023/12/20 07:03:32;;;;;;;5.30;5.20;;;;;;;-141.02;100.00;70605.50;5113383;28;20292;-66
2023/12/20 07:05:59;;;;;;;5.20;5.10;;;;;;;-141.02;100.00;71101.03;5113382;28;20231;-65
2023/12/20 07:08:26;;;;;;;4.80;4.70;;;;;;;-141.02;100.00;70357.75;5113336;28;20189;-66
2023/12/20 07:10:53;;;;;;;5.40;5.30;;;;;;;-141.02;100.00;69862.34;5113268;28;20296;-67
2023/12/20 07:13:20;;;;;;;4.83;4.73;;;;;;;-141.02;100.00;69862.34;5113155;28;20193;-65
2023/12/20 07:15:48;;;;;;;4.50;4.40;;;;;;;-141.02;100.00;70853.25;5113137;28;20246;-66
2023/12/20 07:18:15;;;;;;;4.70;4.60;;;;;;;-141.02;100.00;70110.03;5112911;28;20714;-66
2023/12/20 07:20:42;;;;;;;3.97;3.87;;;;;;;-141.02;100.00;69862.34;5113135;28;20291;-66
2023/12/20 07:23:09;;;;;;;3.90;3.80;;;;;;;-141.02;100.00;70357.75;5112781;28;20255;-67
2023/12/20 07:25:36;;;;;;;3.60;3.50;;;;;;;-141.02;100.00;70605.50;5112787;28;20667;-66
2023/12/20 07:28:03;;;;;;;3.50;3.40;;;;;;;-141.02;100.00;69366.97;5112965;28;20189;-66
2023/12/20 07:30:31;;;;;;;3.70;3.60;;;;;;;-141.02;100.00;70605.50;5112997;28;20199;-67
2023/12/20 07:32:59;;;;;;;4.83;4.73;;;;;;;-141.02;100.00;70110.03;5112638;28;20193;-67
2023/12/20 07:35:26;;;;;;;4.60;4.50;;;;;;;-141.02;100.00;69862.34;5112622;28;20229;-66
2023/12/20 07:37:53;;;;;;;3.77;3.67;;;;;;;-141.02;100.00;69614.66;5112885;28;20284;-67
2023/12/20 07:40:20;;;;;;;5.17;5.07;;;;;;;-141.02;100.00;69614.66;5113119;28;20197;-67
2023/12/20 07:42:47;;;;;;;4.00;3.90;;;;;;;-141.02;100.00;70853.25;5112809;28;20281;-66
2023/12/20 07:45:14;;;;;;;5.33;5.23;;;;;;;-141.02;100.00;70357.75;5112488;28;20201;-67
2023/12/20 07:47:41;;;;;;;6.70;6.50;;;;;;;-141.02;100.00;69366.97;5112814;28;20193;-68
2023/12/20 07:50:10;;;;;;;6.30;6.20;;;;;;;-141.02;100.00;69862.34;5112778;28;20212;-67
2023/12/20 07:52:37;;;;;;;5.73;5.63;;;;;;;-141.02;100.00;71596.63;5113096;28;20279;-67
2023/12/20 07:55:04;;;;;;;5.63;5.53;;;;;;;-141.02;100.00;72835.97;5112302;28;20233;-67
2023/12/20 07:57:31;;;;;;;3.70;3.60;;;;;;;-141.02;100.00;71844.47;5112192;28;20236;-68
2023/12/20 07:59:57;;;;;;;4.33;4.23;;;;;;;-141.02;100.00;73331.81;5112633;28;20282;-68
2023/12/20 08:02:24;;;;;;;3.70;3.60;;;;;;;-141.02;100.00;74075.72;5112342;28;20674;-68
2023/12/20 08:04:51;;;;;;;3.70;3.60;;;;;;;-141.02;100.00;73083.88;5116263;28;20224;-69
2023/12/20 08:07:20;;;;;;;3.30;3.30;;;;;;;-141.02;100.00;73331.81;5116531;28;20746;-71
2023/12/20 08:09:47;;;;;;;3.47;3.37;;;;;;;-141.02;100.00;72835.97;5116686;28;20193;-69
2023/12/20 08:12:14;;;;;;;3.30;3.30;;;;;;;-141.02;100.00;72835.97;5116757;28;20197;-69
2023/12/20 08:14:40;;;;;;;5.77;5.67;;;;;;;-141.02;100.00;72092.31;5116568;28;20228;-69
2023/12/20 08:17:07;;;;;;;4.90;4.80;;;;;;;-141.02;100.00;74075.72;5116296;28;20189;-71
2023/12/20 08:19:34;;;;;;;6.47;6.27;;;;;;;-141.02;100.00;73331.81;5116622;28;20219;-73
2023/12/20 08:22:01;;;;;;;6.80;6.60;;;;;;;-141.02;100.00;73331.81;5116122;28;20640;-74
2023/12/20 08:24:31;;;;;;;7.23;7.03;;;;;;;-141.02;100.00;70605.50;5116207;28;20279;-76
2023/12/20 08:26:58;;;;;;;7.50;7.30;;;;;;;-141.02;100.00;71101.03;5116097;28;20228;-78
2023/12/20 08:29:24;;;;;;;8.87;8.57;;;;;;;-141.02;100.00;70110.03;5116440;28;20283;-77
2023/12/20 08:31:54;;;;;;;9.70;9.40;;;;;;;-141.02;100.00;69366.97;5116049;28;20228;-76
2023/12/20 08:34:21;;;;;;;10.00;9.70;;;;;;;-141.02;100.00;69862.34;5116207;28;20217;-72
2023/12/20 08:36:48;;;;;;;10.63;10.33;;;;;;;-141.02;100.00;67386.28;5116253;28;20203;-73
2023/12/20 08:39:15;;;;;;;7.90;7.70;;;;;;;-141.02;100.00;67138.78;5115856;28;20200;-72
2023/12/20 08:41:43;;;;;;;9.33;9.03;;;;;;;-141.02;100.00;65654.13;5115806;28;20766;-71
2023/12/20 08:44:10;;;;;;;0.87;0.87;;;;;;;-141.02;100.00;65654.13;5116049;28;20204;-71
2023/12/20 08:46:37;;;;;;;8.60;8.40;;;;;;;-141.02;100.00;65901.53;5116066;28;20215;-71
2023/12/20 08:49:04;;;;;;;9.03;8.83;;;;;;;-141.02;100.00;66891.31;5116084;28;20279;-71
2023/12/20 08:51:31;;;;;;;9.20;9.00;;;;;;;-141.02;100.00;68128.91;5116022;28;20292;-72
2023/12/20 08:53:58;;;;;;;9.00;8.80;;;;;;;-141.02;100.00;69366.97;5115858;28;20276;-73
2023/12/20 08:56:25;;;;;;;8.93;8.73;;;;;;;-141.02;100.00;71348.81;5115577;28;20225;-74
2023/12/20 08:58:54;;;;;;;8.40;8.20;;;;;;;-141.02;100.00;72092.31;5115549;28;20663;-74
2023/12/20 09:01:21;;;;;;;8.10;7.90;;;;;;;-141.02;100.00;69366.97;5115799;28;20196;-72
2023/12/20 09:03:47;;;;;;;8.70;8.50;;;;;;;-141.02;100.00;67138.78;5115757;28;20276;-71
2023/12/20 09:06:15;;;;;;;9.87;9.57;;;;;;;-141.02;100.00;63922.84;5115688;28;20272;-70
2023/12/20 09:08:42;;;;;;;12.90;12.50;;;;;;;-141.02;100.00;62439.59;5115593;28;20713;-71
2023/12/20 09:11:09;;;;;;;13.70;13.30;;;;;;;-141.02;100.00;60957.00;5115607;28;20284;-72
2023/12/20 09:13:36;;;;;;;9.00;8.80;;;;;;;-141.02;100.00;60709.94;5115527;28;20201;-71
2023/12/20 09:16:05;;;;;;;12.30;11.90;;;;;;;-141.02;100.00;60709.94;5114641;28;20422;-71
2023/12/20 09:18:32;;;;;;;12.63;12.23;;;;;;;-141.02;100.00;61945.31;5115485;28;20223;-71
2023/12/20 09:20:58;;;;;;;12.20;11.90;;;;;;;-141.02;100.00;63181.16;5115356;28;20244;-70
2023/12/20 09:23:25;;;;;;;10.63;10.33;;;;;;;-141.02;100.00;63922.84;5115370;28;20235;-70
2023/12/20 09:25:52;;;;;;;10.07;9.77;;;;;;;-141.02;100.00;63675.59;5115005;28;20200;-70
2023/12/20 09:28:19;;;;;;;5.83;5.73;;;;;;;-141.02;100.00;63922.84;5115302;28;20301;-69
2023/12/20 09:30:47;;;;;;;7.80;7.60;;;;;;;-141.02;100.00;65159.41;5114954;28;20683;-69
2023/12/20 09:33:16;;;;;;;8.93;8.73;;;;;;;-141.02;100.00;65654.13;5114866;28;20189;-70
2023/12/20 09:35:43;;;;;;;8.30;8.10;;;;;;;-141.02;100.00;66148.94;5114780;28;20724;-70
2023/12/20 09:38:10;;;;;;;8.13;7.93;;;;;;;-141.02;100.00;66148.94;5115491;27;20224;-68
2023/12/20 09:40:40;;;;;;;8.10;7.90;;;;;;;-141.02;100.00;67386.28;5114840;28;20283;-68
2023/12/20 09:43:12;;;;;;;7.23;7.03;;;;;;;-141.02;100.00;67881.38;5115012;28;20236;-68
2023/12/20 09:45:41;;;;;;;7.40;7.20;;;;;;;-141.02;100.00;68128.91;5114746;28;20224;-68
2023/12/20 09:48:10;;;;;;;6.60;6.40;;;;;;;-141.02;100.00;67386.28;5114611;28;20611;-69
2023/12/20 09:50:39;;;;;;;6.73;6.53;;;;;;;-141.02;100.00;65159.41;5114541;28;20287;-69
2023/12/20 09:53:08;;;;;;;5.60;5.50;;;;;;;-141.02;100.00;64170.13;5114722;28;20630;-69
2023/12/20 09:55:37;;;;;;;5.83;5.73;;;;;;;-141.02;100.00;64664.72;5114676;27;20608;-68
2023/12/20 09:58:05;;;;;;;5.30;5.20;;;;;;;-141.02;100.00;62686.75;5114733;28;20192;-68
2023/12/20 10:00:32;;;;;;;5.53;5.43;;;;;;;-141.02;100.00;62192.44;5114301;27;20200;-68
2023/12/20 10:03:01;;;;;;;5.67;5.57;;;;;;;-141.02;100.00;62686.75;5114270;28;20232;-68
2023/12/20 10:05:30;;;;;;;4.43;4.33;;;;;;;-141.02;100.00;62439.59;5114557;28;20200;-68
2023/12/20 10:07:59;;;;;;;5.80;5.70;;;;;;;-141.02;100.00;62686.75;5114537;28;20199;-68
2023/12/20 10:10:26;;;;;;;6.27;6.17;;;;;;;-141.02;100.00;59721.97;5114465;28;20272;-68
2023/12/20 10:13:03;;;;;;;7.37;7.17;;;;;;;-141.02;100.00;60709.94;5114845;28;20193;-68
2023/12/20 10:15:30;;;;;;;5.00;4.90;;;;;;;-141.02;100.00;60957.00;5113958;28;20714;-68
2023/12/20 10:17:58;;;;;;;5.20;5.10;;;;;;;-141.02;100.00;61204.03;5113948;28;20284;-68
2023/12/20 10:20:25;;;;;;;4.80;4.70;;;;;;;-141.02;100.00;62192.44;5114308;28;20674;-69
2023/12/20 10:22:53;;;;;;;5.07;4.97;;;;;;;-141.02;100.00;61698.22;5114133;28;20193;-68
2023/12/20 10:25:22;;;;;;;5.00;4.90;;;;;;;-141.02;100.00;63181.16;5114112;28;20193;-68
2023/12/20 10:27:51;;;;;;;4.10;4.00;;;;;;;-141.02;100.00;63181.16;5113058;28;20225;-68
2023/12/20 10:30:17;;;;;;;4.57;4.47;;;;;;;-141.02;100.00;59721.97;5113774;28;20189;-68
2023/12/20 10:32:44;;;;;;;4.23;4.13;;;;;;;-141.02;100.00;57652.41;5114074;28;20230;-68
2023/12/20 10:35:11;;;;;;;5.10;5.00;;;;;;;-141.02;100.00;57264.84;5113838;28;20311;-68
2023/12/20 10:37:38;;;;;;;7.63;7.43;;;;;;;-141.02;100.00;55316.25;5113605;28;20196;-68
2023/12/20 10:40:07;;;;;;;14.67;13.37;;;;;;;-141.02;100.00;55659.25;5113566;28;20292;-68
2023/12/20 10:42:37;;;;;;;7.27;7.07;;;;;;;-141.02;100.00;54963.66;5113478;28;20288;-68
2023/12/20 10:45:05;;;;;;;11.67;11.27;;;;;;;-141.02;100.00;53709.63;5113491;28;20733;-68
2023/12/20 10:47:33;;;;;;;8.90;8.70;;;;;;;-141.02;100.00;55902.06;5113461;28;20730;-69
2023/12/20 10:50:01;;;;;;;10.23;9.93;;;;;;;-141.02;100.00;57741.09;5113696;28;20236;-69
2023/12/20 10:52:30;;;;;;;8.83;8.63;;;;;;;-141.02;100.00;61204.03;5113294;28;20674;-69
2023/12/20 10:54:57;;;;;;;9.50;9.30;;;;;;;-141.02;100.00;59228.09;5113216;28;20220;-69
2023/12/20 10:57:28;;;;;;;12.80;12.40;;;;;;;-141.02;100.00;55788.34;5113162;28;20248;-70
2023/12/20 11:00:03;;;;;;;15.53;15.03;;;;;;;-141.02;100.00;58649.41;5113518;28;20233;-70
2023/12/20 11:02:33;;;;;;;14.20;13.80;;;;;;;-141.02;100.00;59475.03;5113515;28;20241;-70
2023/12/20 11:05:09;;;;;;;14.13;13.63;;;;;;;-141.02;100.00;60709.94;5113075;28;20693;-71
2023/12/20 11:07:44;;;;;;;17.87;17.27;;;;;;;-141.02;100.00;58205.84;5113034;28;20550;-72
2023/12/20 11:10:17;;;;;;;12.90;12.40;;;;;;;-141.02;100.00;52278.97;5113395;28;20276;-72